createdAt,value
2022-12-06T00:04:58.069Z,100488.00
2022-12-06T00:10:01.981Z,100482.40
2022-12-06T00:15:06.648Z,100481.80
2022-12-06T00:20:11.121Z,100480.00
2022-12-06T00:25:14.799Z,100471.60
2022-12-06T00:30:18.443Z,100471.40
2022-12-06T00:35:21.939Z,100470.60
2022-12-06T00:40:25.457Z,100467.60
2022-12-06T00:45:29.155Z,100463.80
2022-12-06T00:50:32.829Z,100465.60
2022-12-06T00:55:36.322Z,100473.40
2022-12-06T01:00:40.798Z,100480.20
2022-12-06T01:05:48.618Z,100470.60
2022-12-06T01:10:54.872Z,100466.00
2022-12-06T01:16:04.415Z,100465.80
2022-12-06T01:21:16.034Z,100464.20
2022-12-06T01:26:26.933Z,100445.60
2022-12-06T01:31:37.533Z,100436.60
2022-12-06T01:36:42.961Z,100432.40
2022-12-06T01:41:46.708Z,100429.00
2022-12-06T01:46:50.199Z,100421.60
2022-12-06T01:52:03.293Z,100417.60
2022-12-06T01:57:14.206Z,100416.40
2022-12-06T02:02:18.110Z,100414.20
2022-12-06T02:07:23.730Z,100406.40
2022-12-06T02:12:27.345Z,100382.60
2022-12-06T02:17:42.951Z,100371.60
2022-12-06T02:23:20.258Z,100360.60
2022-12-06T02:29:20.207Z,100353.80
2022-12-06T02:34:32.525Z,100347.40
2022-12-06T02:40:06.901Z,100346.80
2022-12-06T02:45:19.728Z,100342.80
2022-12-06T02:50:37.638Z,100344.60
2022-12-06T02:55:44.060Z,100343.00
2022-12-06T03:00:56.472Z,100350.20
2022-12-06T03:06:20.362Z,100348.80
2022-12-06T03:11:53.990Z,100348.00
2022-12-06T03:17:39.279Z,100347.60
2022-12-06T03:22:53.454Z,100350.20
2022-12-06T03:28:00.200Z,100347.00
2022-12-06T03:33:05.072Z,100335.80
2022-12-06T03:38:15.025Z,100327.00
2022-12-06T03:43:20.116Z,100329.20
2022-12-06T03:48:43.702Z,100321.40
2022-12-06T03:53:53.981Z,100315.80
2022-12-06T03:58:57.448Z,100309.40
2022-12-06T04:04:01.497Z,100304.00
2022-12-06T04:09:24.005Z,100299.00
2022-12-06T04:14:32.832Z,100294.40
2022-12-06T04:19:36.431Z,100297.80
2022-12-06T04:24:39.968Z,100291.60
2022-12-06T04:30:02.448Z,100298.00
2022-12-06T04:35:25.923Z,100291.40
2022-12-06T04:40:29.641Z,100286.80
2022-12-06T04:45:33.158Z,100286.60
2022-12-06T04:50:37.367Z,100284.20
2022-12-06T04:55:41.010Z,100280.40
2022-12-06T05:00:48.373Z,100274.40
2022-12-06T05:05:52.960Z,100266.60
2022-12-06T05:10:56.997Z,100262.20
2022-12-06T05:16:05.574Z,100257.00
2022-12-06T05:21:20.284Z,100249.40
2022-12-06T05:26:27.964Z,100247.40
2022-12-06T05:31:31.712Z,100242.60
2022-12-06T05:36:35.366Z,100237.20
2022-12-06T05:41:38.996Z,100236.40
2022-12-06T05:46:42.504Z,100234.20
2022-12-06T05:51:46.022Z,100231.40
2022-12-06T05:56:51.080Z,100225.80
2022-12-06T06:01:54.948Z,100225.40
2022-12-06T06:06:58.753Z,100222.60
2022-12-06T06:12:02.550Z,100224.40
2022-12-06T06:17:06.340Z,100220.00
2022-12-06T06:22:10.101Z,100224.60
2022-12-06T06:27:13.721Z,100230.60
2022-12-06T06:32:17.540Z,100228.40
2022-12-06T06:37:21.264Z,100222.80
2022-12-06T06:42:25.298Z,100225.40
2022-12-06T06:47:28.812Z,100223.80
2022-12-06T06:52:33.327Z,100223.80
2022-12-06T06:57:36.910Z,100226.60
2022-12-06T07:02:40.419Z,100230.00
2022-12-06T07:07:44.870Z,100229.60
2022-12-06T07:12:50.225Z,100222.40
2022-12-06T07:17:54.436Z,100218.80
2022-12-06T07:22:58.590Z,100221.80
2022-12-06T07:28:02.822Z,100226.60
2022-12-06T07:33:06.621Z,100228.60
2022-12-06T07:38:10.336Z,100228.80
2022-12-06T07:43:32.879Z,100225.00
2022-12-06T07:48:36.318Z,100223.20
2022-12-06T07:53:40.062Z,100233.60
2022-12-06T07:58:43.784Z,100234.40
2022-12-06T08:03:47.640Z,100233.80
2022-12-06T08:08:51.178Z,100222.60
2022-12-06T08:13:54.828Z,100223.60
2022-12-06T08:18:58.654Z,100214.00
2022-12-06T08:24:04.508Z,100204.60
2022-12-06T08:29:08.246Z,100204.60
2022-12-06T08:34:13.443Z,100203.80
2022-12-06T08:39:17.022Z,100204.00
2022-12-06T08:44:21.256Z,100202.80
2022-12-06T08:49:27.288Z,100197.80
2022-12-06T08:54:31.880Z,100194.20
2022-12-06T08:59:35.498Z,100197.80
2022-12-06T09:04:39.692Z,100194.00
2022-12-06T09:09:43.457Z,100186.20
2022-12-06T09:14:48.508Z,100192.20
2022-12-06T09:19:52.228Z,100185.00
2022-12-06T09:24:55.863Z,100181.20
2022-12-06T09:29:59.647Z,100184.40
2022-12-06T09:35:03.727Z,100177.40
2022-12-06T09:40:20.661Z,100171.20
2022-12-06T09:45:47.153Z,100168.00
2022-12-06T09:51:20.919Z,100165.80
2022-12-06T09:56:50.691Z,100164.60
2022-12-06T10:02:11.810Z,100160.80
2022-12-06T10:07:49.569Z,100152.40
2022-12-06T10:13:06.641Z,100149.00
2022-12-06T10:18:28.382Z,100142.80
2022-12-06T10:23:50.547Z,100139.40
2022-12-06T10:29:19.726Z,100131.60
2022-12-06T10:34:57.877Z,100125.40
2022-12-06T10:40:11.835Z,100113.80
2022-12-06T10:45:53.701Z,100111.60
2022-12-06T10:51:12.496Z,100105.60
2022-12-06T10:56:30.191Z,100103.20
2022-12-06T11:01:44.294Z,100106.40
2022-12-06T11:06:55.051Z,100096.20
2022-12-06T11:12:00.103Z,100090.20
2022-12-06T11:17:19.896Z,100081.40
2022-12-06T11:22:27.019Z,100077.40
2022-12-06T11:27:38.631Z,100078.80
2022-12-06T11:32:43.668Z,100071.40
2022-12-06T11:37:52.400Z,100060.40
2022-12-06T11:43:00.683Z,100050.40
2022-12-06T11:48:26.882Z,100046.60
2022-12-06T11:54:02.450Z,100052.80
2022-12-06T11:59:32.070Z,100054.40
2022-12-06T12:04:45.250Z,100051.40
2022-12-06T12:09:52.319Z,100050.80
2022-12-06T12:14:59.214Z,100048.00
2022-12-06T12:20:09.216Z,100043.20
2022-12-06T12:25:30.131Z,100035.40
2022-12-06T12:30:52.200Z,100028.60
2022-12-06T12:36:22.612Z,100029.00
2022-12-06T12:41:43.132Z,100021.80
2022-12-06T12:46:57.736Z,100018.80
2022-12-06T12:52:21.598Z,100015.00
2022-12-06T12:57:25.426Z,100011.40
2022-12-06T13:02:31.430Z,100013.60
2022-12-06T13:07:40.597Z,100016.80
2022-12-06T13:12:58.842Z,100013.40
2022-12-06T13:18:18.429Z,99999.00
2022-12-06T13:23:29.642Z,99990.40
2022-12-06T13:28:42.017Z,99988.20
2022-12-06T13:33:59.211Z,99979.00
2022-12-06T13:39:38.327Z,99978.20
2022-12-06T13:44:48.708Z,99978.20
2022-12-06T13:50:00.219Z,99980.00
2022-12-06T13:55:26.015Z,99979.60
2022-12-06T14:00:34.386Z,99972.60
2022-12-06T14:06:07.453Z,99969.60
2022-12-06T14:11:24.912Z,99968.20
2022-12-06T14:16:57.599Z,99961.40
2022-12-06T14:22:17.173Z,99964.00
2022-12-06T14:27:24.588Z,99957.20
2022-12-06T14:32:41.250Z,99957.60
2022-12-06T14:37:59.272Z,99956.80
2022-12-06T14:43:17.191Z,99953.60
2022-12-06T14:48:22.872Z,99945.00
2022-12-06T14:53:39.641Z,99945.20
2022-12-06T14:58:44.024Z,99944.80
2022-12-06T15:04:05.133Z,99946.60
2022-12-06T15:09:15.807Z,99944.40
2022-12-06T15:14:47.613Z,99940.00
2022-12-06T15:19:54.624Z,99940.20
2022-12-06T15:25:00.477Z,99935.00
2022-12-06T15:30:05.837Z,99929.20
2022-12-06T15:35:18.686Z,99921.60
2022-12-06T15:40:22.200Z,99909.80
2022-12-06T15:45:25.972Z,99910.20
2022-12-06T15:50:30.055Z,99904.80
2022-12-06T15:55:33.677Z,99895.60
2022-12-06T16:00:38.321Z,99893.60
2022-12-06T16:05:42.560Z,99882.00
2022-12-06T16:11:11.423Z,99880.60
2022-12-06T16:16:13.655Z,99874.00
2022-12-06T16:21:31.844Z,99877.80
2022-12-06T16:26:45.369Z,99870.60
2022-12-06T16:31:53.243Z,99864.20
2022-12-06T16:37:09.405Z,99864.80
2022-12-06T16:42:14.050Z,99858.20
2022-12-06T16:47:17.670Z,99857.40
2022-12-06T16:52:21.807Z,99850.80
2022-12-06T16:57:25.532Z,99847.00
2022-12-06T17:02:32.776Z,99851.60
2022-12-06T17:07:37.269Z,99851.00
2022-12-06T17:12:42.016Z,99843.40
2022-12-06T17:17:46.557Z,99841.80
2022-12-06T17:22:50.497Z,99847.00
2022-12-06T17:27:54.308Z,99845.60
2022-12-06T17:32:58.056Z,99837.60
2022-12-06T17:38:01.816Z,99838.80
2022-12-06T17:43:05.476Z,99831.00
2022-12-06T17:48:09.201Z,99835.80
2022-12-06T17:53:13.023Z,99839.40
2022-12-06T17:58:16.748Z,99837.40
2022-12-06T18:03:20.516Z,99838.40
2022-12-06T18:08:24.466Z,99840.80
2022-12-06T18:13:30.326Z,99834.00
2022-12-06T18:18:33.995Z,99828.40
2022-12-06T18:23:48.586Z,99833.00
2022-12-06T18:29:05.956Z,99832.00
2022-12-06T18:34:11.143Z,99835.60
2022-12-06T18:39:17.952Z,99830.00
2022-12-06T18:44:23.817Z,99829.20
2022-12-06T18:49:28.192Z,99823.60
2022-12-06T18:54:33.134Z,99817.80
2022-12-06T18:59:39.522Z,99815.80
2022-12-06T19:04:44.759Z,99804.60
2022-12-06T19:09:49.248Z,99805.00
2022-12-06T19:14:53.470Z,99802.20
2022-12-06T19:19:57.226Z,99800.40
2022-12-06T19:25:01.514Z,99787.80
2022-12-06T19:30:08.954Z,99787.80
2022-12-06T19:35:13.361Z,99780.80
2022-12-06T19:40:18.120Z,99779.80
2022-12-06T19:45:22.260Z,99771.40
2022-12-06T19:50:26.539Z,99768.40
2022-12-06T19:55:30.910Z,99764.40
2022-12-06T20:00:35.246Z,99757.80
2022-12-06T20:05:39.426Z,99754.00
2022-12-06T20:10:44.766Z,99748.00
2022-12-06T20:15:49.030Z,99745.00
2022-12-06T20:20:53.006Z,99742.80
2022-12-06T20:25:58.124Z,99739.00
2022-12-06T20:36:24.372Z,99733.20
2022-12-06T20:41:33.486Z,99730.60
2022-12-06T20:46:37.295Z,99730.80
2022-12-06T20:51:41.447Z,99726.80
2022-12-06T20:56:47.530Z,99719.60
2022-12-06T21:01:51.574Z,99715.40
2022-12-06T21:06:56.011Z,99702.60
2022-12-06T21:12:00.029Z,99699.60
2022-12-06T21:17:03.759Z,99693.40
2022-12-06T21:22:08.927Z,99689.60
2022-12-06T21:27:12.652Z,99696.40
2022-12-06T21:32:16.199Z,99692.40
2022-12-06T21:37:20.254Z,99690.20
2022-12-06T21:42:25.124Z,99685.00
2022-12-06T21:47:29.671Z,99687.40
2022-12-06T21:52:33.189Z,99683.60
2022-12-06T21:57:37.291Z,99677.80
2022-12-06T22:02:40.990Z,99668.80
2022-12-06T22:07:44.989Z,99655.60
2022-12-06T22:12:48.638Z,99655.80
2022-12-06T22:17:52.222Z,99653.00
2022-12-06T22:22:56.343Z,99640.80
2022-12-06T22:28:00.512Z,99630.80
2022-12-06T22:33:04.400Z,99628.80
2022-12-06T22:38:08.910Z,99622.40
2022-12-06T22:43:12.470Z,99620.80
2022-12-06T22:48:16.368Z,99621.20
2022-12-06T22:53:20.026Z,99617.00
2022-12-06T22:58:23.727Z,99615.80
2022-12-06T23:03:29.559Z,99608.80
2022-12-06T23:08:34.244Z,99610.40
2022-12-06T23:13:38.788Z,99605.40
2022-12-06T23:18:43.867Z,99602.40
2022-12-06T23:24:12.792Z,99595.80
2022-12-06T23:29:17.397Z,99592.60
2022-12-06T23:34:26.906Z,99592.60
2022-12-06T23:39:30.471Z,99586.40
2022-12-06T23:44:34.199Z,99581.40
2022-12-06T23:49:38.129Z,99576.00
2022-12-06T23:54:41.663Z,99576.40
2022-12-06T23:59:45.674Z,99575.20
